Tiempo atmosférico en la estación meteorológica de Los Arcos, Navarra (470 m.)



Fecha
DESCASC
Temp. máxima en grados centígrados (hora)
DESCASC
Temp. mínima en grados centígrados (hora)
DESCASC
Temp. media en grados centígrados
DESCASC
Racha de viento máxima en m/sg (hora)
DESCASC
Velocidad máxima media en intervalos de 10 minutos(hora)
DESCASC
Precipitaciones diarias en mm
DESCASC
Precipitaciones de 00:00 a 06:00 en mm
DESCASC
Precipitaciones de 06:00 a 12:00 en mm
DESCASC
Precipitaciones de 12:00 a 18:00 en mm
DESCASC
Precipitaciones de 18:00 a 24:00 en mm
DESCASC
16-01-2020 13.6 (15:10) 2.6 (01:30) 8.1 8.33 (14:50) 5.83 (15:20) 0 0 0 0 0
15-01-2020 9.9 (15:40) -0.2 (00:30) 4.8 6.94 (09:10) 4.17 (08:50) 0 0 0 0 0
14-01-2020 4.8 (16:10) -3.1 (07:50) 0.9 3.89 (07:00) 2.5 (12:20) 0 0 0 0 0
13-01-2020 5.4 (14:40) -2 (08:50) 1.7 3.33 (22:20) 1.94 (02:20) 0 0 0 0 0
12-01-2020 14.6 (16:30) -1.2 (-00:0) 6.7 6.11 (14:30) 3.33 (13:30) 0 0 0 0 0
11-01-2020 12.4 (16:20) -0.3 (00:00) 6 5.83 (14:10) 3.61 (06:40) 0 0 0 0 0
10-01-2020 11.6 (14:30) 2.9 (00:00) 7.3 9.44 (06:20) 5 (06:20) 0 0 0 0 0
09-01-2020 4.4 (13:00) 2.8 (00:00) 3.6 5.83 (15:30) 3.61 (15:40) 2.4 0 0 0 2.4
08-01-2020 13 (11:10) 2.4 (00:00) 7.7 6.11 (14:40) 4.72 (13:00) 0 0 0 0 0
07-01-2020 17.1 (15:30) -1.5 (-00:0) 7.8 4.17 (22:20) 3.61 (22:20) 0 0 0 0 0
06-01-2020 2.3 (15:00) -1.6 (-00:0) 0.3 4.17 (23:00) 3.61 (23:00) 0 0 0 0 0
05-01-2020 15.2 (15:40) 2.1 (00:00) 8.6 5.83 (06:20) 3.89 (06:10) 0 0 0 0 0
04-01-2020 12.2 (13:30) 3.3 (00:00) 7.7 8.06 (17:10) 4.44 (15:20) 0 0 0 0 0
03-01-2020 10.9 (15:00) -1.9 (-00:0) 4.5 6.67 (18:40) 4.17 (18:40) 0 0 0 0 0
02-01-2020 -0.2 (14:20) -1.4 (-00:0) -0.8 3.61 (22:40) 2.22 (22:20) 0 0 0 0 0
01-01-2020 0.9 (16:00) -2.6 (-00:0) -0.8 2.5 (14:10) 1.39 (23:40) 0 0 0 0 0
31-12-2019 1 (15:30) -0.8 (-00:0) 0.1 2.78 (10:20) 1.94 (10:20) 0 0 0 0 0
30-12-2019 -- (--) -- (--) -- -- (--) -- (--) -- 0 0 0 --
29-12-2019 2.1 (00:00) -2.1 (-00:0) 0 2.78 (22:40) 1.94 (22:50) 0 0 0 0 0
28-12-2019 17.6 (14:40) 2 (00:00) 9.8 6.11 (17:00) 4.17 (02:50) 0 0 0 0 0
27-12-2019 13.8 (16:10) -1.2 (-00:0) 6.3 5.28 (02:10) 4.44 (02:10) 0 0 0 0 0
26-12-2019 14.1 (14:40) 3.2 (00:00) 8.7 8.89 (11:00) 5 (10:50) 0 0 0 0 0
25-12-2019 15.3 (15:50) 3.4 (00:00) 9.4 3.89 (00:20) 3.33 (00:20) 0 0 0 0 0
24-12-2019 17.9 (15:50) 5.1 (00:00) 11.5 4.72 (14:50) 4.17 (23:59) 0 0 0 0 0
23-12-2019 14.6 (16:20) 4.8 (00:00) 9.7 8.61 (06:50) 5.83 (06:50) 0 0 0 0 0
22-12-2019 16.5 (15:40) 7.3 (00:00) 11.9 20.56 (03:10) 11.11 (02:40) 2 0 0 1.4 0.6
21-12-2019 12.9 (18:10) 7.1 (00:00) 10 21.67 (17:40) 12.5 (18:00) 3.2 0 0.6 2.6 0
20-12-2019 12.8 (03:00) 8.4 (00:00) 10.6 17.78 (08:10) 9.72 (01:00) 15.2 6.6 0.2 2.2 6.2

Gráficas

Temp. máximas Temp. mínimas Temp. medias Precipitaciones Rachas de viento máximas Velocidades máximas media en intervalos de 10 minutos

Datos horarios

Fecha y hora oficial Temperatura (ºC) Velocidad del viento (km/h) Dirección del viento Racha (km/h) Dirección de racha Precipitación (mm) Presión (hPa) Tendencia (hPa) Humedad (%)
2020-01-18 23:00:00 4.6 10 Oeste 22 Noroeste 0.2 -- -- 91
2020-01-18 22:00:00 4.7 11 Noroeste 25 Norte 1.4 -- -- 90
2020-01-18 21:00:00 4.9 12 Norte 38 Norte 6.2 -- -- 92
2020-01-18 20:00:00 6.3 23 Este 37 Este 2.8 -- -- 93
2020-01-18 19:00:00 6.8 17 Este 32 Este 1 -- -- 89
2020-01-18 18:00:00 8 20 Este 37 Este 0.4 -- -- 81
2020-01-18 17:00:00 9.1 20 Este 36 Este 0 -- -- 72
2020-01-18 16:00:00 9.1 23 Este 35 Este 0 -- -- 74
2020-01-18 15:00:00 8.5 16 Este 25 Este 0 -- -- 76
2020-01-18 14:00:00 7.8 15 Este 25 Este 0 -- -- 75
2020-01-18 13:00:00 6.9 13 Este 22 Este 0 -- -- 80
2020-01-18 12:00:00 5.8 13 Este 23 Este 0 -- -- 80
2020-01-18 11:00:00 5.2 9 Este 17 Este 0 -- -- 85
2020-01-18 10:00:00 3.1 4 Este 15 Este 0 -- -- 92
2020-01-18 09:00:00 2.9 2 Este 9 Norte 0 -- -- 92
2020-01-18 08:00:00 2.9 6 Norte 14 Norte 0 -- -- 93
2020-01-18 07:00:00 2.7 2 Noroeste 10 Nordeste 0 -- -- 92
2020-01-18 06:00:00 2.6 6 Norte 12 Norte 0 -- -- 94
2020-01-18 05:00:00 2.1 2 Este 9 Noroeste 0 -- -- 91
2020-01-18 04:00:00 2.7 8 Norte 14 Noroeste 0 -- -- 92
2020-01-18 03:00:00 2.4 6 Noroeste 12 Nordeste 0 -- -- 93
2020-01-18 02:00:00 1.4 0 Calma 12 Norte 0 -- -- 93
2020-01-18 01:00:00 1.4 3 Nordeste 9 Norte 0 -- -- 91
2020-01-18 00:00:00 2.1 8 Norte 9 Norte 0 -- -- 88
2020-01-17 23:00:00 3 3 Noroeste 10 Noroeste 0 -- -- 85
2020-01-17 22:00:00 4.4 2 Este 6 Norte 0 -- -- 81
2020-01-17 21:00:00 6 3 Norte 12 Norte 0 -- -- 75
2020-01-17 20:00:00 6.6 5 Noroeste 16 Noroeste 0 -- -- 74
2020-01-17 19:00:00 7.4 9 Noroeste 24 Noroeste 0 -- -- 70
2020-01-17 18:00:00 8.1 14 Noroeste 25 Norte 0 -- -- 68
2020-01-17 17:00:00 8.5 11 Noroeste 24 Noroeste 0 -- -- 67
2020-01-17 16:00:00 9.9 16 Noroeste 29 Norte 0.2 -- -- 65
2020-01-17 15:00:00 11.1 10 Norte 23 Norte 0 -- -- 63
2020-01-17 14:00:00 11 10 Noroeste 27 Norte 0.2 -- -- 71
2020-01-17 13:00:00 11.7 12 Noroeste 32 Noroeste 0 -- -- 68
2020-01-17 12:00:00 11.7 19 Noroeste 41 Oeste 0 -- -- 59
2020-01-17 11:00:00 11.3 17 Oeste 34 Oeste 0 -- -- 62
2020-01-17 10:00:00 6.7 5 Oeste 11 Oeste 0 -- -- 87
2020-01-17 09:00:00 5.4 3 Este 11 Nordeste 0 -- -- 92
2020-01-17 08:00:00 5.6 8 Norte 11 Noroeste 0 -- -- 92
2020-01-17 07:00:00 4.6 6 Nordeste 12 Norte 0 -- -- 94
2020-01-17 06:00:00 4.4 9 Norte 13 Norte 0 -- -- 90
2020-01-17 05:00:00 5 12 Norte 18 Norte 0 -- -- 89
2020-01-17 04:00:00 6.4 9 Nordeste 13 Norte 0 -- -- 85
2020-01-17 03:00:00 6.9 9 Nordeste 14 Nordeste 0 -- -- 85
2020-01-17 02:00:00 7.8 8 Nordeste 13 Este 0 -- -- 83
2020-01-17 01:00:00 8.1 9 Este 12 Este 0 -- -- 82
2020-01-17 00:00:00 8.1 10 Norte 14 Este 0 -- -- 81
2020-01-16 23:00:00 8.3 10 Este 16 Este 0 -- -- 79
2020-01-16 22:00:00 8.5 8 Este 18 Este 0 -- -- 77
2020-01-16 21:00:00 8.8 9 Este 19 Este 0 -- -- 77
2020-01-16 20:00:00 8.9 11 Este 26 Sudeste 0 -- -- 79
2020-01-16 19:00:00 9.7 14 Sudeste 26 Sudeste 0 -- -- 77
2020-01-16 18:00:00 10.2 10 Este 21 Este 0 -- -- 77
2020-01-16 17:00:00 10.9 8 Sudeste 29 Este 0 -- -- 74
2020-01-16 16:00:00 13.1 14 Sudeste 30 Sudeste 0 -- -- 69
2020-01-16 15:00:00 13.2 17 Sudeste 30 Este 0 -- -- 69
2020-01-16 14:00:00 10.5 15 Este 23 Este 0 -- -- 78
2020-01-16 13:00:00 7.8 9 Este 23 Este 0 -- -- 85
2020-01-16 12:00:00 7.3 10 Este 19 Este 0 -- -- 85
2020-01-16 11:00:00 5.7 6 Sudeste 16 Este 0 -- -- 90
2020-01-16 10:00:00 4.8 4 Sudeste 27 Este 0 -- -- 91
2020-01-16 09:00:00 4.1 15 Este 23 Este 0 -- -- 93
2020-01-16 08:00:00 4.2 12 Este 24 Este 0 -- -- 91
2020-01-16 07:00:00 3.9 6 Este 18 Este 0 -- -- 90
2020-01-16 06:00:00 3.9 5 Este 14 Este 0 -- -- 91
2020-01-16 05:00:00 3.9 11 Nordeste 16 Este 0 -- -- 93
2020-01-16 04:00:00 4.1 8 Nordeste 16 Este 0 -- -- 92
2020-01-16 03:00:00 3.9 10 Nordeste 14 Nordeste 0 -- -- 93
2020-01-16 02:00:00 3 5 Nordeste 11 Nordeste 0 -- -- 94
2020-01-16 01:00:00 3 0 Calma 11 Nordeste 0 -- -- 92
2020-01-16 00:00:00 3.4 4 Norte 13 Este 0 -- -- 93
2020-01-15 23:00:00 3.3 2 Nordeste 11 Norte 0 -- -- 92
2020-01-15 22:00:00 3.5 8 Norte 12 Norte 0 -- -- 90
2020-01-15 21:00:00 4.4 8 Nordeste 12 Norte 0 -- -- 90
2020-01-15 20:00:00 5 6 Norte 9 Norte 0 -- -- 86
2020-01-15 19:00:00 7 5 Norte 9 Nordeste 0 -- -- 80
2020-01-15 18:00:00 8 3 Nordeste 10 Nordeste 0 -- -- 77
2020-01-15 17:00:00 9.3 5 Nordeste 15 Este 0 -- -- 72
2020-01-15 16:00:00 9.8 6 Nordeste 12 Norte 0 -- -- 70
2020-01-15 15:00:00 9.4 8 Este 19 Este 0 -- -- 69
2020-01-15 14:00:00 7.5 9 Este 19 Este 0 -- -- 77
2020-01-15 13:00:00 6.7 9 Este 19 Este 0 -- -- 77
2020-01-15 12:00:00 5.9 13 Este 19 Nordeste 0 -- -- 78
2020-01-15 11:00:00 5 10 Este 23 Nordeste 0 -- -- 81
2020-01-15 10:00:00 4.4 10 Este 25 Este 0 -- -- 83
2020-01-15 09:00:00 4.1 14 Este 22 Nordeste 0 -- -- 85
2020-01-15 08:00:00 2.6 11 Nordeste 19 Este 0 -- -- 88
2020-01-15 07:00:00 2.1 10 Nordeste 19 Nordeste 0 -- -- 89
2020-01-15 06:00:00 2.6 12 Este 20 Este 0 -- -- 86
2020-01-15 05:00:00 2.8 12 Este 19 Este 0 -- -- 86
2020-01-15 04:00:00 2.2 10 Este 17 Este 0 -- -- 88
2020-01-15 03:00:00 1.8 8 Nordeste 16 Este 0 -- -- 90
2020-01-15 02:00:00 1.1 11 Este 17 Este 0 -- -- 93
2020-01-15 01:00:00 0.2 5 Nordeste 17 Este 0 -- -- 96
2020-01-15 00:00:00 0 7 Este 14 Nordeste 0 -- -- 97
2020-01-14 23:00:00 -0.3 8 Este 14 Este 0 -- -- 97
2020-01-14 22:00:00 -0.3 7 Este 13 Nordeste 0 -- -- 99
2020-01-14 21:00:00 -1.5 2 Sudeste 6 Este 0 -- -- 96
2020-01-14 20:00:00 -1.1 0 Calma 3 Este 0 -- -- 96
2020-01-14 19:00:00 -0.5 0 Calma 4 Este 0 -- -- 94
2020-01-14 18:00:00 1.4 0 Calma 6 Sudeste 0 -- -- 89
2020-01-14 17:00:00 4.3 3 Sur 8 Sudeste 0 -- -- 83
2020-01-14 16:00:00 4.3 3 Sur 9 Este 0 -- -- 85
2020-01-14 15:00:00 1.5 5 Este 10 Este 0 -- -- 99
2020-01-14 14:00:00 0.5 3 Sudoeste 10 Sudeste 0 -- -- 99
2020-01-14 13:00:00 0.2 5 Sudeste 14 Sudeste 0 -- -- 99
2020-01-14 12:00:00 -0.8 6 Este 10 Este 0 -- -- 99
2020-01-14 11:00:00 -1.9 0 Calma 6 Nordeste 0 -- -- 99
2020-01-14 10:00:00 -2.2 4 Sudeste 6 Sudeste 0 -- -- 98
2020-01-14 09:00:00 -2.8 0 Calma 10 Este 0 -- -- 98
2020-01-14 08:00:00 -3.1 6 Este 9 Este 0 -- -- 98
2020-01-14 07:00:00 -2.8 8 Norte 14 Norte 0 -- -- 98
2020-01-14 06:00:00 -2.3 2 Sur 8 Oeste 0 -- -- 98
2020-01-14 05:00:00 -2.3 3 Noroeste 8 Noroeste 0 -- -- 98
2020-01-14 04:00:00 -1.7 0 Calma 10 Norte 0 -- -- 97
2020-01-14 03:00:00 -1.7 0 Calma 5 Nordeste 0 -- -- 98
2020-01-14 02:00:00 -1.9 3 Este 9 Norte 0 -- -- 97
2020-01-14 01:00:00 -1.9 3 Noroeste 7 Norte 0 -- -- 96
2020-01-14 00:00:00 -1.4 0 Calma 9 Norte 0 -- -- 96
2020-01-13 23:00:00 -1 0 Calma 12 Norte 0 -- -- 96
2020-01-13 22:00:00 -0.7 5 Norte 8 Noroeste 0 -- -- 95
2020-01-13 21:00:00 0 5 Norte 8 Norte 0 -- -- 94
2020-01-13 20:00:00 0.4 5 Norte 6 Norte 0 -- -- 93
2020-01-13 19:00:00 1.2 0 Calma 9 Nordeste 0 -- -- 90
2020-01-13 18:00:00 3 6 Este 9 Este 0 -- -- 85
2020-01-13 17:00:00 5.4 5 Este 11 Sudeste 0 -- -- 81
2020-01-13 16:00:00 5.3 4 Sudeste 10 Sudeste 0 -- -- 82
2020-01-13 15:00:00 5.3 4 Sudeste 9 Sudeste 0 -- -- 81
2020-01-13 14:00:00 4.9 4 Sudeste 6 Sudeste 0 -- -- 82
2020-01-13 13:00:00 4.1 3 Sudeste 8 Sudeste 0 -- -- 87
2020-01-13 12:00:00 3.3 3 Sudeste 8 Sudeste 0 -- -- 90
2020-01-13 11:00:00 0.9 0 Calma 4 Norte 0 -- -- 97
2020-01-13 10:00:00 -0.9 0 Calma 3 Oeste 0 -- -- 98
2020-01-13 09:00:00 -2 0 Calma 4 Noroeste 0 -- -- 97
2020-01-13 08:00:00 -1.8 0 Calma 6 Norte 0 -- -- 96
2020-01-13 07:00:00 -0.9 3 Norte 8 Norte 0 -- -- 97
2020-01-13 06:00:00 -0.8 0 Calma 5 Este 0 -- -- 96
2020-01-13 05:00:00 -0.9 2 Este 8 Norte 0 -- -- 95
2020-01-13 04:00:00 -0.8 2 Norte 6 Norte 0 -- -- 94
2020-01-13 03:00:00 0.3 4 Norte 9 Norte 0 -- -- 94
2020-01-13 02:00:00 1 2 Nordeste 5 Nordeste 0 -- -- 92
2020-01-13 01:00:00 2.1 0 Calma 6 Este 0 -- -- 91
2020-01-13 00:00:00 2.8 0 Calma 9 Norte 0 -- -- 89
2020-01-12 23:00:00 3.3 0 Calma 6 Norte 0 -- -- 88
2020-01-12 22:00:00 3.4 2 Norte 5 Norte 0 -- -- 85
2020-01-12 21:00:00 4.5 4 Norte 8 Norte 0 -- -- 83
2020-01-12 20:00:00 5.4 4 Norte 6 Norte 0 -- -- 78
2020-01-12 19:00:00 6.9 0 Calma 10 Noroeste 0 -- -- 68
2020-01-12 18:00:00 9.7 6 Noroeste 9 Oeste 0 -- -- 55
2020-01-12 17:00:00 14.4 6 Noroeste 14 Oeste 0 -- -- 40
2020-01-12 16:00:00 13.9 10 Oeste 18 Oeste 0 -- -- 46
2020-01-12 15:00:00 13.3 11 Oeste 22 Oeste 0 -- -- 46
2020-01-12 14:00:00 12.6 10 Oeste 20 Oeste 0 -- -- 49
2020-01-12 13:00:00 11.3 10 Oeste 17 Oeste 0 -- -- 55
2020-01-12 12:00:00 7.6 3 Sudoeste 8 Sudoeste 0 -- -- 70
2020-01-12 11:00:00 5.1 4 Sudoeste 10 Oeste 0 -- -- 77
2020-01-12 10:00:00 2.9 4 Sudoeste 11 Norte 0 -- -- 76
2020-01-12 09:00:00 0 4 Norte 10 Norte 0 -- -- 90
2020-01-12 08:00:00 -1.1 5 Nordeste 12 Noroeste 0 -- -- 88
2020-01-12 07:00:00 -0.8 3 Noroeste 8 Noroeste 0 -- -- 89
2020-01-12 06:00:00 -0.8 3 Oeste 9 Norte 0 -- -- 88
2020-01-12 05:00:00 -0.4 5 Norte 9 Norte 0 -- -- 89
2020-01-12 04:00:00 -0.2 0 Calma 9 Norte 0 -- -- 88
2020-01-12 03:00:00 -0.6 5 Norte 8 Norte 0 -- -- 91
2020-01-12 02:00:00 -0.1 3 Nordeste 15 Noroeste 0 -- -- 91
2020-01-12 01:00:00 0.3 6 Norte 9 Norte 0 -- -- 90
2020-01-12 00:00:00 0.9 4 Norte 11 Norte 0 -- -- 90
2020-01-11 23:00:00 1.3 4 Norte 10 Norte 0 -- -- 91
2020-01-11 22:00:00 1.6 5 Norte 10 Norte 0 -- -- 89
2020-01-11 21:00:00 2.3 9 Norte 13 Norte 0 -- -- 87
2020-01-11 20:00:00 3.2 9 Norte 12 Norte 0 -- -- 85
2020-01-11 19:00:00 4.7 4 Norte 10 Nordeste 0 -- -- 81
2020-01-11 18:00:00 7.9 6 Oeste 12 Noroeste 0 -- -- 68
2020-01-11 17:00:00 12.2 5 Oeste 10 Oeste 0 -- -- 54
2020-01-11 16:00:00 12.3 6 Oeste 14 Oeste 0 -- -- 52
2020-01-11 15:00:00 11.7 8 Oeste 21 Oeste 0 -- -- 56
2020-01-11 14:00:00 11.2 10 Oeste 18 Oeste 0 -- -- 58
2020-01-11 13:00:00 10.5 8 Oeste 19 Sudoeste 0 -- -- 61
2020-01-11 12:00:00 8.9 9 Oeste 15 Oeste 0 -- -- 65
2020-01-11 11:00:00 6.6 4 Sudoeste 7 Sur 0 -- -- 77
2020-01-11 10:00:00 3.8 2 Este 9 Norte 0 -- -- 85
2020-01-11 09:00:00 1 4 Oeste 14 Noroeste 0 -- -- 95
2020-01-11 08:00:00 -0.2 6 Noroeste 11 Norte 0 -- -- 94
2020-01-11 07:00:00 0.1 4 Este 16 Norte 0 -- -- 92
2020-01-11 06:00:00 0.7 7 Noroeste 14 Noroeste 0 -- -- 91
2020-01-11 05:00:00 0.9 7 Oeste 10 Oeste 0 -- -- 92
2020-01-11 04:00:00 1.7 3 Oeste 9 Oeste 0 -- -- 88
2020-01-11 03:00:00 2.8 2 Oeste 14 Noroeste 0 -- -- 84
2020-01-11 02:00:00 2.4 6 Noroeste 13 Noroeste 0 -- -- 89
2020-01-11 01:00:00 2.6 5 Oeste 11 Norte 0 -- -- 89
2020-01-11 00:00:00 2.9 8 Noroeste 16 Noroeste 0 -- -- 87
2020-01-10 23:00:00 4.3 6 Noroeste 14 Norte 0 -- -- 83
2020-01-10 22:00:00 6 6 Oeste 15 Norte 0 -- -- 79
2020-01-10 21:00:00 6.2 8 Noroeste 14 Noroeste 0 -- -- 80
2020-01-10 20:00:00 6.7 3 Noroeste 14 Noroeste 0 -- -- 76
2020-01-10 19:00:00 6.3 5 Noroeste 14 Noroeste 0 -- -- 77
2020-01-10 18:00:00 7.5 8 Noroeste 24 Noroeste 0 -- -- 71
2020-01-10 17:00:00 8.1 16 Noroeste 28 Norte 0 -- -- 70
2020-01-10 16:00:00 8.9 12 Norte 24 Nordeste 0 -- -- 71
2020-01-10 15:00:00 10.7 14 Noroeste 30 Noroeste 0 -- -- 69
2020-01-10 14:00:00 11.2 14 Oeste 23 Noroeste 0 -- -- 70
2020-01-10 13:00:00 8.2 12 Oeste 25 Oeste 0 -- -- 82
2020-01-10 12:00:00 8.5 13 Oeste 27 Noroeste 0 -- -- 79
2020-01-10 11:00:00 7.9 9 Oeste 19 Oeste 0 -- -- 79
2020-01-10 10:00:00 6.1 10 Oeste 20 Oeste 0 -- -- 85
2020-01-10 09:00:00 5.4 6 Noroeste 15 Oeste 0 -- -- 88
2020-01-10 08:00:00 5.7 10 Noroeste 25 Oeste 0 -- -- 84
2020-01-10 07:00:00 5.4 13 Noroeste 34 Oeste 0 -- -- 84
2020-01-10 06:00:00 5.3 9 Noroeste 15 Noroeste 0 -- -- 88
2020-01-10 05:00:00 5.1 9 Noroeste 16 Noroeste 0 -- -- 89
2020-01-10 04:00:00 5.3 5 Noroeste 29 Noroeste 0 -- -- 88
2020-01-10 03:00:00 4.6 8 Oeste 16 Oeste 0 -- -- 95
2020-01-10 02:00:00 5.2 4 Oeste 28 Noroeste 0 -- -- 92
2020-01-10 01:00:00 3.8 3 Este 9 Oeste 0 -- -- 98
2020-01-10 00:00:00 4 2 Oeste 11 Oeste 0.4 -- -- 98
2020-01-09 23:00:00 3.6 4 Oeste 13 Oeste 0.6 -- -- 98
2020-01-09 22:00:00 3.7 3 Sudeste 12 Noroeste 0.8 -- -- 98
2020-01-09 21:00:00 3.4 6 Norte 10 Norte 0.6 -- -- 97
2020-01-09 20:00:00 3.3 4 Sudoeste 9 Sudoeste 0 -- -- 97
2020-01-09 19:00:00 3.5 0 Calma 10 Oeste 0 -- -- 97
2020-01-09 18:00:00 2.9 4 Oeste 10 Sudeste 0 -- -- 96
2020-01-09 17:00:00 3.8 4 Este 13 Este 0 -- -- 95
2020-01-09 16:00:00 3.8 9 Este 21 Este 0 -- -- 94
2020-01-09 15:00:00 4.2 7 Sudeste 17 Sudeste 0 -- -- 94
2020-01-09 14:00:00 4.4 6 Sudeste 14 Sudeste 0 -- -- 93
2020-01-09 13:00:00 4.4 6 Sudeste 10 Sudeste 0 -- -- 98
2020-01-09 12:00:00 3.9 6 Sudeste 12 Sudeste 0 -- -- 98
2020-01-09 11:00:00 3.9 8 Sudeste 12 Sudeste 0 -- -- 99
2020-01-09 10:00:00 3.2 4 Este 6 Este 0 -- -- 99
2020-01-09 09:00:00 3 4 Este 6 Este 0 -- -- 99
2020-01-09 08:00:00 2.8 0 Calma 5 Sudeste 0 -- -- 99
2020-01-09 07:00:00 3 2 Sudoeste 5 Sudeste 0 -- -- 99
2020-01-09 06:00:00 3 3 Este 9 Sudeste 0 -- -- 99
2020-01-09 05:00:00 3 3 Sudeste 6 Este 0 -- -- 99
2020-01-09 04:00:00 3.1 0 Calma 6 Sudeste 0 -- -- 99
2020-01-09 03:00:00 3.1 0 Calma 9 Este 0 -- -- 99
2020-01-09 02:00:00 3.2 3 Este 9 Este 0 -- -- 99
2020-01-09 01:00:00 3.2 2 Noroeste 5 Oeste 0 -- -- 99
2020-01-09 00:00:00 3.1 3 Sudeste 12 Este 0 -- -- 98
2020-01-08 23:00:00 3.2 8 Este 12 Este 0 -- -- 98
2020-01-08 22:00:00 2.6 4 Nordeste 11 Sudeste 0 -- -- 98
2020-01-08 21:00:00 2.7 4 Este 9 Este 0 -- -- 97
2020-01-08 20:00:00 3.1 8 Este 13 Este 0 -- -- 96
2020-01-08 19:00:00 3.5 6 Este 13 Este 0 -- -- 94
2020-01-08 18:00:00 4.9 9 Este 12 Este 0 -- -- 92
2020-01-08 17:00:00 6.8 8 Este 17 Este 0 -- -- 87
2020-01-08 16:00:00 8.7 12 Este 19 Este 0 -- -- 80
2020-01-08 15:00:00 9.3 14 Este 22 Este 0 -- -- 78
2020-01-08 14:00:00 9.9 15 Este 20 Este 0 -- -- 77
2020-01-08 13:00:00 10.1 17 Este 21 Este 0 -- -- 77
2020-01-08 12:00:00 12.9 9 Este 12 Este 0 -- -- 74
2020-01-08 11:00:00 12.5 4 Oeste 8 Oeste 0 -- -- 76
2020-01-08 10:00:00 9.5 4 Noroeste 8 Oeste 0 -- -- 85
2020-01-08 09:00:00 6.3 0 Calma 14 Noroeste 0 -- -- 92
2020-01-08 08:00:00 6.7 5 Noroeste 10 Noroeste 0 -- -- 94
2020-01-08 07:00:00 6 4 Oeste 13 Noroeste 0 -- -- 91
2020-01-08 06:00:00 7.5 11 Norte 14 Norte 0 -- -- 93
2020-01-08 05:00:00 7 6 Noroeste 9 Oeste 0 -- -- 95
2020-01-08 04:00:00 6.4 2 Norte 12 Noroeste 0 -- -- 92
2020-01-08 03:00:00 6.9 4 Oeste 10 Noroeste 0 -- -- 90
2020-01-08 02:00:00 8.2 9 Noroeste 13 Noroeste 0 -- -- 91
2020-01-08 01:00:00 7.7 10 Noroeste 14 Noroeste 0 -- -- 92
2020-01-08 00:00:00 7.9 9 Norte 13 Oeste 0 -- -- 90
2020-01-07 23:00:00 8.1 6 Oeste 15 Noroeste 0 -- -- 90
2020-01-07 22:00:00 8.2 10 Noroeste 13 Noroeste 0 -- -- 91
2020-01-07 21:00:00 8.3 3 Oeste 11 Norte 0 -- -- 87
2020-01-07 20:00:00 8.9 3 Noroeste 10 Noroeste 0 -- -- 86
2020-01-07 19:00:00 10.1 3 Noroeste 13 Noroeste 0 -- -- 80
2020-01-07 18:00:00 12.4 7 Noroeste 9 Noroeste 0 -- -- 73
2020-01-07 17:00:00 15.2 4 Oeste 12 Oeste 0 -- -- 61
2020-01-07 16:00:00 16.4 6 Sudoeste 13 Sudoeste 0 -- -- 58
2020-01-07 15:00:00 16.5 4 Sur 7 Sudoeste 0 -- -- 59
2020-01-07 14:00:00 13.4 3 Sur 8 Sudeste 0 -- -- 65
2020-01-07 13:00:00 10.4 3 Sudeste 6 Sudeste 0 -- -- 69
2020-01-07 12:00:00 6.9 3 Sudoeste 7 Sudoeste 0 -- -- 80
2020-01-07 11:00:00 4.3 3 Sudoeste 6 Oeste 0 -- -- 88
2020-01-07 10:00:00 3.1 0 Calma 4 Norte 0 -- -- 94
2020-01-07 09:00:00 0.4 2 Noroeste 10 Norte 0 -- -- 97
2020-01-07 08:00:00 0.2 5 Norte 10 Norte 0 -- -- 96
2020-01-07 07:00:00 0.2 0 Calma 7 Norte 0 -- -- 96
2020-01-07 06:00:00 -0.7 2 Este 7 Este 0 -- -- 97
2020-01-07 05:00:00 -0.3 2 Noroeste 14 Noroeste 0 -- -- 98
2020-01-07 04:00:00 -1.4 3 Oeste 13 Noroeste 0 -- -- 97
2020-01-07 03:00:00 -0.3 4 Noroeste 12 Noroeste 0 -- -- 98
2020-01-07 02:00:00 -0.5 2 Noroeste 8 Oeste 0 -- -- 98
2020-01-07 01:00:00 -0.1 11 Norte 13 Norte 0 -- -- 99
2020-01-07 00:00:00 -1.5 3 Oeste 13 Norte 0 -- -- 97
2020-01-06 23:00:00 0.7 13 Noroeste 15 Norte 0 -- -- 100
2020-01-06 22:00:00 -1.2 2 Sudeste 9 Norte 0 -- -- 98
2020-01-06 21:00:00 -0.9 3 Oeste 7 Norte 0 -- -- 98
2020-01-06 20:00:00 0 0 Calma 7 Noroeste 0 -- -- 97
2020-01-06 19:00:00 1.2 3 Oeste 6 Oeste 0 -- -- 98
2020-01-06 18:00:00 1.8 0 Calma 5 Norte 0 -- -- 98
2020-01-06 17:00:00 2.1 3 Nordeste 6 Sudeste 0 -- -- 98
2020-01-06 16:00:00 2.2 2 Sur 6 Sudoeste 0 -- -- 98
2020-01-06 15:00:00 2.3 3 Sudeste 6 Sur 0 -- -- 98
2020-01-06 14:00:00 1.5 3 Sudoeste 9 Oeste 0 -- -- 98
2020-01-06 13:00:00 0.9 2 Sudoeste 8 Oeste 0 -- -- 99
2020-01-06 12:00:00 0.1 4 Sudoeste 7 Sudoeste 0 -- -- 98
2020-01-06 11:00:00 -0.3 3 Sudeste 6 Sudeste 0 -- -- 98
2020-01-06 10:00:00 -0.5 3 Sudeste 6 Sudoeste 0 -- -- 98